METAR Data
IDs: Format: Raw Decoded Include TAF

Data at: 0659 UTC 01 Aug 2021

CYVR 010600Z 14006KT 20SM BKN150 OVC180 22/18 A2999 RMK AC6AS2 SLP156 DENSITY ALT 800FT